sensor_id;sensor_type;location;lat;lon;timestamp;pressure;altitude;pressure_sealevel;temperature;humidity
12468;BME280;57850;52.922;6.256;2023-02-02T00:01:15;102167.59;;;8.94;100.00
12468;BME280;57850;52.922;6.256;2023-02-02T00:03:41;102159.72;;;9.01;100.00
12468;BME280;57850;52.922;6.256;2023-02-02T00:06:08;102171.13;;;8.84;100.00
12468;BME280;57850;52.922;6.256;2023-02-02T00:08:36;102142.97;;;9.30;100.00
12468;BME280;57850;52.922;6.256;2023-02-02T00:11:04;102146.34;;;9.38;100.00
12468;BME280;57850;52.922;6.256;2023-02-02T00:13:31;102148.16;;;9.31;100.00
12468;BME280;57850;52.922;6.256;2023-02-02T00:15:58;102154.41;;;9.12;100.00
12468;BME280;57850;52.922;6.256;2023-02-02T00:18:25;102133.25;;;9.44;100.00
12468;BME280;57850;52.922;6.256;2023-02-02T00:20:52;102136.66;;;9.52;100.00
12468;BME280;57850;52.922;6.256;2023-02-02T00:23:25;102140.84;;;9.62;100.00
12468;BME280;57850;52.922;6.256;2023-02-02T00:25:53;102147.09;;;9.52;100.00
12468;BME280;57850;52.922;6.256;2023-02-02T00:28:20;102132.81;;;9.82;100.00
12468;BME280;57850;52.922;6.256;2023-02-02T00:30:46;102140.03;;;9.61;100.00
12468;BME280;57850;52.922;6.256;2023-02-02T00:33:13;102135.41;;;9.82;100.00
12468;BME280;57850;52.922;6.256;2023-02-02T00:35:40;102139.97;;;9.66;100.00
12468;BME280;57850;52.922;6.256;2023-02-02T00:38:08;102138.25;;;9.62;100.00
12468;BME280;57850;52.922;6.256;2023-02-02T00:40:34;102145.28;;;9.58;100.00
12468;BME280;57850;52.922;6.256;2023-02-02T00:43:04;102147.78;;;9.67;100.00
12468;BME280;57850;52.922;6.256;2023-02-02T00:45:31;102145.28;;;9.57;100.00
12468;BME280;57850;52.922;6.256;2023-02-02T00:47:57;102158.44;;;9.45;100.00
12468;BME280;57850;52.922;6.256;2023-02-02T00:50:23;102154.75;;;9.62;100.00
12468;BME280;57850;52.922;6.256;2023-02-02T00:52:50;102164.47;;;9.48;100.00
12468;BME280;57850;52.922;6.256;2023-02-02T00:55:17;102174.00;;;9.49;100.00
12468;BME280;57850;52.922;6.256;2023-02-02T00:57:47;102162.47;;;9.72;100.00
12468;BME280;57850;52.922;6.256;2023-02-02T01:00:17;102171.13;;;9.75;100.00
12468;BME280;57850;52.922;6.256;2023-02-02T01:03:19;102154.41;;;9.93;100.00
12468;BME280;57850;52.922;6.256;2023-02-02T01:05:45;102174.81;;;9.57;100.00
12468;BME280;57850;52.922;6.256;2023-02-02T01:08:14;102178.28;;;9.58;100.00
12468;BME280;57850;52.922;6.256;2023-02-02T01:10:41;102157.19;;;9.79;100.00
12468;BME280;57850;52.922;6.256;2023-02-02T01:13:07;102157.16;;;9.82;100.00
12468;BME280;57850;52.922;6.256;2023-02-02T01:15:35;102156.25;;;9.85;100.00
12468;BME280;57850;52.922;6.256;2023-02-02T01:18:02;102162.44;;;9.75;100.00
12468;BME280;57850;52.922;6.256;2023-02-02T01:20:29;102167.34;;;10.00;100.00
12468;BME280;57850;52.922;6.256;2023-02-02T01:22:56;102186.00;;;9.65;100.00
12468;BME280;57850;52.922;6.256;2023-02-02T01:25:23;102181.59;;;9.72;100.00
12468;BME280;57850;52.922;6.256;2023-02-02T01:27:52;102187.94;;;9.48;100.00
12468;BME280;57850;52.922;6.256;2023-02-02T01:30:19;102175.47;;;9.76;100.00
12468;BME280;57850;52.922;6.256;2023-02-02T01:32:47;102188.84;;;9.41;100.00
12468;BME280;57850;52.922;6.256;2023-02-02T01:35:16;102173.75;;;9.74;100.00
12468;BME280;57850;52.922;6.256;2023-02-02T01:37:43;102186.06;;;9.61;100.00
12468;BME280;57850;52.922;6.256;2023-02-02T01:40:11;102194.00;;;9.49;100.00
12468;BME280;57850;52.922;6.256;2023-02-02T01:42:37;102193.38;;;9.21;100.00
12468;BME280;57850;52.922;6.256;2023-02-02T01:45:14;102185.59;;;9.20;100.00
12468;BME280;57850;52.922;6.256;2023-02-02T01:47:51;102174.13;;;9.37;100.00
12468;BME280;57850;52.922;6.256;2023-02-02T01:50:40;102178.44;;;9.43;100.00
12468;BME280;57850;52.922;6.256;2023-02-02T01:53:11;102180.22;;;9.38;100.00
12468;BME280;57850;52.922;6.256;2023-02-02T01:55:38;102157.19;;;9.79;100.00
12468;BME280;57850;52.922;6.256;2023-02-02T01:58:10;102174.84;;;9.53;100.00
12468;BME280;57850;52.922;6.256;2023-02-02T02:00:40;102158.81;;;9.88;100.00
12468;BME280;57850;52.922;6.256;2023-02-02T02:03:12;102168.63;;;9.67;100.00
12468;BME280;57850;52.922;6.256;2023-02-02T02:05:51;102157.09;;;9.85;100.00
12468;BME280;57850;52.922;6.256;2023-02-02T02:08:22;102150.19;;;9.81;100.00
12468;BME280;57850;52.922;6.256;2023-02-02T02:10:52;102156.44;;;9.68;100.00
12468;BME280;57850;52.922;6.256;2023-02-02T02:13:24;102154.41;;;9.91;100.00
12468;BME280;57850;52.922;6.256;2023-02-02T02:16:17;102135.56;;;10.40;100.00
12468;BME280;57850;52.922;6.256;2023-02-02T02:18:56;102147.09;;;10.22;100.00
12468;BME280;57850;52.922;6.256;2023-02-02T02:21:42;102147.13;;;10.19;100.00
12468;BME280;57850;52.922;6.256;2023-02-02T02:28:25;102133.47;;;10.61;100.00
12468;BME280;57850;52.922;6.256;2023-02-02T02:34:17;102134.09;;;10.75;100.00
12468;BME280;57850;52.922;6.256;2023-02-02T02:36:50;102138.66;;;10.63;100.00
12468;BME280;57850;52.922;6.256;2023-02-02T02:39:26;102155.56;;;10.38;100.00
12468;BME280;57850;52.922;6.256;2023-02-02T02:41:56;102148.03;;;10.74;100.00
12468;BME280;57850;52.922;6.256;2023-02-02T02:44:25;102158.75;;;10.56;100.00
12468;BME280;57850;52.922;6.256;2023-02-02T02:46:53;102151.66;;;10.66;100.00
12468;BME280;57850;52.922;6.256;2023-02-02T02:49:22;102159.69;;;10.54;100.00
12468;BME280;57850;52.922;6.256;2023-02-02T02:51:50;102159.75;;;10.49;100.00
12468;BME280;57850;52.922;6.256;2023-02-02T02:54:20;102151.13;;;10.44;100.00
12468;BME280;57850;52.922;6.256;2023-02-02T02:57:02;102142.16;;;10.62;100.00
12468;BME280;57850;52.922;6.256;2023-02-02T02:59:36;102150.72;;;10.70;100.00
12468;BME280;57850;52.922;6.256;2023-02-02T03:02:23;102160.34;;;10.66;100.00
12468;BME280;57850;52.922;6.256;2023-02-02T03:05:02;102146.19;;;10.83;100.00
12468;BME280;57850;52.922;6.256;2023-02-02T03:07:36;102156.72;;;10.75;100.00
12468;BME280;57850;52.922;6.256;2023-02-02T03:10:05;102165.69;;;10.59;100.00
12468;BME280;57850;52.922;6.256;2023-02-02T03:12:33;102151.72;;;10.63;100.00
12468;BME280;57850;52.922;6.256;2023-02-02T03:15:04;102152.53;;;10.66;100.00
12468;BME280;57850;52.922;6.256;2023-02-02T03:17:30;102152.41;;;10.74;100.00
12468;BME280;57850;52.922;6.256;2023-02-02T03:19:58;102147.03;;;10.83;100.00
12468;BME280;57850;52.922;6.256;2023-02-02T03:22:25;102143.63;;;10.78;100.00
12468;BME280;57850;52.922;6.256;2023-02-02T03:24:52;102143.56;;;10.83;100.00
12468;BME280;57850;52.922;6.256;2023-02-02T03:27:19;102132.69;;;11.07;100.00
12468;BME280;57850;52.922;6.256;2023-02-02T03:29:46;102131.66;;;11.15;100.00
12468;BME280;57850;52.922;6.256;2023-02-02T03:32:12;102129.25;;;11.05;100.00
12468;BME280;57850;52.922;6.256;2023-02-02T03:34:39;102140.59;;;11.04;100.00
12468;BME280;57850;52.922;6.256;2023-02-02T03:37:07;102135.53;;;10.95;100.00
12468;BME280;57850;52.922;6.256;2023-02-02T03:39:33;102130.38;;;10.90;100.00
12468;BME280;57850;52.922;6.256;2023-02-02T03:42:00;102130.19;;;11.02;100.00
12468;BME280;57850;52.922;6.256;2023-02-02T03:44:26;102126.59;;;11.08;100.00
12468;BME280;57850;52.922;6.256;2023-02-02T03:46:53;102131.97;;;10.99;100.00
12468;BME280;57850;52.922;6.256;2023-02-02T03:49:20;102139.88;;;10.94;100.00
12468;BME280;57850;52.922;6.256;2023-02-02T03:51:47;102132.09;;;10.93;100.00
12468;BME280;57850;52.922;6.256;2023-02-02T03:54:15;102124.00;;;11.06;100.00
12468;BME280;57850;52.922;6.256;2023-02-02T03:56:42;102106.91;;;11.36;100.00
12468;BME280;57850;52.922;6.256;2023-02-02T03:59:09;102116.69;;;11.26;100.00
12468;BME280;57850;52.922;6.256;2023-02-02T04:01:36;102129.38;;;10.97;100.00
12468;BME280;57850;52.922;6.256;2023-02-02T04:04:02;102130.88;;;11.12;100.00
12468;BME280;57850;52.922;6.256;2023-02-02T04:06:29;102118.53;;;11.20;100.00
12468;BME280;57850;52.922;6.256;2023-02-02T04:08:55;102121.91;;;11.26;100.00
12468;BME280;57850;52.922;6.256;2023-02-02T04:11:23;102126.16;;;11.32;100.00
12468;BME280;57850;52.922;6.256;2023-02-02T04:13:50;102138.13;;;10.95;100.00
12468;BME280;57850;52.922;6.256;2023-02-02T04:16:16;102134.44;;;11.06;100.00
12468;BME280;57850;52.922;6.256;2023-02-02T04:18:43;102123.06;;;11.09;100.00
12468;BME280;57850;52.922;6.256;2023-02-02T04:21:10;102141.41;;;11.07;100.00
12468;BME280;57850;52.922;6.256;2023-02-02T04:23:36;102152.41;;;10.74;100.00
12468;BME280;57850;52.922;6.256;2023-02-02T04:26:04;102133.56;;;11.06;100.00
12468;BME280;57850;52.922;6.256;2023-02-02T04:30:58;102159.50;;;10.66;100.00
12468;BME280;57850;52.922;6.256;2023-02-02T04:33:26;102154.03;;;10.81;100.00
12468;BME280;57850;52.922;6.256;2023-02-02T04:35:53;102156.91;;;10.64;100.00
12468;BME280;57850;52.922;6.256;2023-02-02T04:38:20;102146.94;;;10.89;100.00
12468;BME280;57850;52.922;6.256;2023-02-02T04:40:47;102169.19;;;10.56;100.00
12468;BME280;57850;52.922;6.256;2023-02-02T04:43:14;102140.63;;;11.02;100.00
12468;BME280;57850;52.922;6.256;2023-02-02T04:45:42;102149.59;;;10.86;100.00
12468;BME280;57850;52.922;6.256;2023-02-02T04:48:09;102163.97;;;10.58;100.00
12468;BME280;57850;52.922;6.256;2023-02-02T04:50:36;102159.44;;;10.69;100.00
12468;BME280;57850;52.922;6.256;2023-02-02T04:53:03;102185.38;;;10.18;100.00
12468;BME280;57850;52.922;6.256;2023-02-02T04:55:29;102166.44;;;10.67;100.00
12468;BME280;57850;52.922;6.256;2023-02-02T04:57:56;102193.00;;;10.35;100.00
12468;BME280;57850;52.922;6.256;2023-02-02T05:00:22;102186.78;;;10.44;100.00
12468;BME280;57850;52.922;6.256;2023-02-02T05:02:51;102186.81;;;10.41;100.00
12468;BME280;57850;52.922;6.256;2023-02-02T05:05:18;102194.66;;;10.42;100.00
12468;BME280;57850;52.922;6.256;2023-02-02T05:07:46;102177.84;;;10.61;100.00
12468;BME280;57850;52.922;6.256;2023-02-02T05:10:12;102188.53;;;10.43;100.00
12468;BME280;57850;52.922;6.256;2023-02-02T05:12:39;102190.13;;;10.53;100.00
12468;BME280;57850;52.922;6.256;2023-02-02T05:15:06;102179.53;;;10.64;100.00
12468;BME280;57850;52.922;6.256;2023-02-02T05:17:33;102183.03;;;10.64;100.00
12468;BME280;57850;52.922;6.256;2023-02-02T05:20:01;102176.94;;;10.64;100.00
12468;BME280;57850;52.922;6.256;2023-02-02T05:22:28;102191.88;;;10.54;100.00
12468;BME280;57850;52.922;6.256;2023-02-02T05:24:54;102186.22;;;10.82;100.00
12468;BME280;57850;52.922;6.256;2023-02-02T05:27:21;102186.94;;;10.91;100.00
12468;BME280;57850;52.922;6.256;2023-02-02T05:29:47;102207.97;;;10.82;100.00
12468;BME280;57850;52.922;6.256;2023-02-02T05:32:14;102203.78;;;10.72;100.00
12468;BME280;57850;52.922;6.256;2023-02-02T05:34:41;102199.25;;;10.83;100.00
12468;BME280;57850;52.922;6.256;2023-02-02T05:37:09;102196.56;;;10.89;100.00
12468;BME280;57850;52.922;6.256;2023-02-02T05:39:35;102205.56;;;10.68;100.00
12468;BME280;57850;52.922;6.256;2023-02-02T05:42:02;102194.97;;;10.81;100.00
12468;BME280;57850;52.922;6.256;2023-02-02T05:44:29;102203.84;;;10.67;100.00
12468;BME280;57850;52.922;6.256;2023-02-02T05:46:55;102210.69;;;10.74;100.00
12468;BME280;57850;52.922;6.256;2023-02-02T05:49:22;102211.50;;;10.78;100.00
12468;BME280;57850;52.922;6.256;2023-02-02T05:51:51;102219.59;;;10.61;100.00
12468;BME280;57850;52.922;6.256;2023-02-02T05:54:20;102218.78;;;10.56;100.00
12468;BME280;57850;52.922;6.256;2023-02-02T05:56:48;102222.41;;;10.46;100.00
12468;BME280;57850;52.922;6.256;2023-02-02T05:59:15;102218.13;;;10.42;100.00
12468;BME280;57850;52.922;6.256;2023-02-02T06:01:42;102210.88;;;10.64;100.00
12468;BME280;57850;52.922;6.256;2023-02-02T06:04:09;102214.38;;;10.60;100.00
12468;BME280;57850;52.922;6.256;2023-02-02T06:06:35;102213.44;;;10.65;100.00
12468;BME280;57850;52.922;6.256;2023-02-02T06:09:03;102208.88;;;10.80;100.00
12468;BME280;57850;52.922;6.256;2023-02-02T06:11:32;102217.97;;;10.54;100.00
12468;BME280;57850;52.922;6.256;2023-02-02T06:13:58;102230.31;;;10.42;100.00
12468;BME280;57850;52.922;6.256;2023-02-02T06:16:25;102225.75;;;10.56;100.00
12468;BME280;57850;52.922;6.256;2023-02-02T06:18:52;102226.75;;;10.47;100.00
12468;BME280;57850;52.922;6.256;2023-02-02T06:21:22;102221.56;;;10.44;100.00
12468;BME280;57850;52.922;6.256;2023-02-02T06:23:50;102214.53;;;10.52;100.00
12468;BME280;57850;52.922;6.256;2023-02-02T06:26:17;102217.97;;;10.54;100.00
12468;BME280;57850;52.922;6.256;2023-02-02T06:28:49;102228.47;;;10.48;100.00
12468;BME280;57850;52.922;6.256;2023-02-02T06:31:17;102218.66;;;10.67;100.00
12468;BME280;57850;52.922;6.256;2023-02-02T06:33:44;102208.84;;;10.83;100.00
12468;BME280;57850;52.922;6.256;2023-02-02T06:36:11;102224.56;;;10.78;100.00
12468;BME280;57850;52.922;6.256;2023-02-02T06:38:38;102236.97;;;10.64;100.00
12468;BME280;57850;52.922;6.256;2023-02-02T06:41:04;102238.84;;;10.53;100.00
12468;BME280;57850;52.922;6.256;2023-02-02T06:43:31;102225.66;;;10.65;100.00
12468;BME280;57850;52.922;6.256;2023-02-02T06:45:59;102225.50;;;10.74;100.00
12468;BME280;57850;52.922;6.256;2023-02-02T06:48:26;102226.44;;;10.70;100.00
12468;BME280;57850;52.922;6.256;2023-02-02T06:50:53;102232.53;;;10.69;100.00
12468;BME280;57850;52.922;6.256;2023-02-02T06:53:20;102237.75;;;10.69;100.00
12468;BME280;57850;52.922;6.256;2023-02-02T06:55:52;102236.91;;;10.67;100.00
12468;BME280;57850;52.922;6.256;2023-02-02T06:58:18;102245.84;;;10.52;100.00
12468;BME280;57850;52.922;6.256;2023-02-02T07:00:46;102223.09;;;10.60;100.00
12468;BME280;57850;52.922;6.256;2023-02-02T07:03:14;102236.97;;;10.62;100.00
12468;BME280;57850;52.922;6.256;2023-02-02T07:05:41;102252.06;;;10.41;100.00
12468;BME280;57850;52.922;6.256;2023-02-02T07:08:07;102260.94;;;10.25;100.00
12468;BME280;57850;52.922;6.256;2023-02-02T07:10:35;102255.63;;;10.35;100.00
12468;BME280;57850;52.922;6.256;2023-02-02T07:13:02;102251.88;;;10.53;100.00
12468;BME280;57850;52.922;6.256;2023-02-02T07:15:28;102255.16;;;10.70;100.00
12468;BME280;57850;52.922;6.256;2023-02-02T07:17:55;102254.22;;;10.74;100.00
12468;BME280;57850;52.922;6.256;2023-02-02T07:20:23;102261.25;;;10.69;100.00
12468;BME280;57850;52.922;6.256;2023-02-02T07:22:50;102254.16;;;10.79;100.00
12468;BME280;57850;52.922;6.256;2023-02-02T07:25:17;102251.56;;;10.77;100.00
12468;BME280;57850;52.922;6.256;2023-02-02T07:27:43;102259.41;;;10.75;100.00
12468;BME280;57850;52.922;6.256;2023-02-02T07:30:11;102257.47;;;10.90;100.00
12468;BME280;57850;52.922;6.256;2023-02-02T07:32:38;102260.28;;;10.76;100.00
12468;BME280;57850;52.922;6.256;2023-02-02T07:35:05;102264.50;;;10.86;100.00
12468;BME280;57850;52.922;6.256;2023-02-02T07:37:33;102284.16;;;10.47;100.00
12468;BME280;57850;52.922;6.256;2023-02-02T07:39:59;102277.06;;;10.57;100.00
12468;BME280;57850;52.922;6.256;2023-02-02T07:42:26;102268.38;;;10.56;100.00
12468;BME280;57850;52.922;6.256;2023-02-02T07:44:52;102268.38;;;10.58;100.00
12468;BME280;57850;52.922;6.256;2023-02-02T07:47:19;102275.41;;;10.50;100.00
12468;BME280;57850;52.922;6.256;2023-02-02T07:49:46;102268.91;;;10.83;100.00
12468;BME280;57850;52.922;6.256;2023-02-02T07:52:13;102275.81;;;10.85;100.00
12468;BME280;57850;52.922;6.256;2023-02-02T07:54:41;102274.03;;;10.87;100.00
12468;BME280;57850;52.922;6.256;2023-02-02T07:57:08;102286.16;;;10.91;100.00
12468;BME280;57850;52.922;6.256;2023-02-02T07:59:35;102288.84;;;10.87;100.00
12468;BME280;57850;52.922;6.256;2023-02-02T08:02:01;102294.47;;;10.56;100.00
12468;BME280;57850;52.922;6.256;2023-02-02T08:04:28;102303.28;;;10.46;100.00
12468;BME280;57850;52.922;6.256;2023-02-02T08:06:54;102298.00;;;10.55;100.00
12468;BME280;57850;52.922;6.256;2023-02-02T08:09:21;102310.38;;;10.38;100.00
12468;BME280;57850;52.922;6.256;2023-02-02T08:11:50;102305.91;;;10.49;100.00
12468;BME280;57850;52.922;6.256;2023-02-02T08:14:16;102311.06;;;10.51;100.00
12468;BME280;57850;52.922;6.256;2023-02-02T08:16:43;102313.72;;;10.49;100.00
12468;BME280;57850;52.922;6.256;2023-02-02T08:19:10;102301.22;;;10.74;100.00
12468;BME280;57850;52.922;6.256;2023-02-02T08:21:37;102309.22;;;10.60;100.00
12468;BME280;57850;52.922;6.256;2023-02-02T08:24:04;102312.56;;;10.70;100.00
12468;BME280;57850;52.922;6.256;2023-02-02T08:26:30;102316.00;;;10.73;100.00
12468;BME280;57850;52.922;6.256;2023-02-02T08:29:00;102321.19;;;10.75;100.00
12468;BME280;57850;52.922;6.256;2023-02-02T08:31:29;102322.91;;;10.79;100.00
12468;BME280;57850;52.922;6.256;2023-02-02T08:33:56;102322.03;;;10.80;100.00
12468;BME280;57850;52.922;6.256;2023-02-02T08:36:24;102321.03;;;10.87;100.00
12468;BME280;57850;52.922;6.256;2023-02-02T08:38:51;102321.06;;;10.84;100.00
12468;BME280;57850;52.922;6.256;2023-02-02T08:41:19;102329.91;;;10.75;100.00
12468;BME280;57850;52.922;6.256;2023-02-02T08:43:47;102325.47;;;10.82;100.00
12468;BME280;57850;52.922;6.256;2023-02-02T08:46:17;102311.91;;;11.17;100.00
12468;BME280;57850;52.922;6.256;2023-02-02T08:48:44;102331.19;;;11.08;100.00
12468;BME280;57850;52.922;6.256;2023-02-02T08:51:13;102336.78;;;10.81;100.00
12468;BME280;57850;52.922;6.256;2023-02-02T08:53:40;102343.66;;;10.88;100.00
12468;BME280;57850;52.922;6.256;2023-02-02T08:56:10;102343.50;;;11.00;100.00
12468;BME280;57850;52.922;6.256;2023-02-02T08:58:37;102351.63;;;10.79;100.00
12468;BME280;57850;52.922;6.256;2023-02-02T09:01:05;102361.47;;;10.57;100.00
12468;BME280;57850;52.922;6.256;2023-02-02T09:03:33;102356.84;;;10.81;100.00
12468;BME280;57850;52.922;6.256;2023-02-02T09:06:04;102351.28;;;11.03;100.00
12468;BME280;57850;52.922;6.256;2023-02-02T09:08:30;102369.09;;;10.74;100.00
12468;BME280;57850;52.922;6.256;2023-02-02T09:11:03;102345.81;;;11.20;100.00
12468;BME280;57850;52.922;6.256;2023-02-02T09:13:29;102360.97;;;10.94;100.00
12468;BME280;57850;52.922;6.256;2023-02-02T09:15:58;102375.00;;;10.88;100.00
12468;BME280;57850;52.922;6.256;2023-02-02T09:18:25;102374.13;;;10.88;100.00
12468;BME280;57850;52.922;6.256;2023-02-02T09:20:53;102353.56;;;11.24;100.00
12468;BME280;57850;52.922;6.256;2023-02-02T09:23:20;102364.94;;;11.22;100.00
12468;BME280;57850;52.922;6.256;2023-02-02T09:25:46;102365.94;;;11.13;100.00
12468;BME280;57850;52.922;6.256;2023-02-02T09:28:13;102376.72;;;10.89;100.00
12468;BME280;57850;52.922;6.256;2023-02-02T09:30:39;102366.59;;;11.31;100.00
12468;BME280;57850;52.922;6.256;2023-02-02T09:33:06;102387.84;;;11.05;100.00
12468;BME280;57850;52.922;6.256;2023-02-02T09:35:32;102381.41;;;11.28;100.00
12468;BME280;57850;52.922;6.256;2023-02-02T09:38:00;102388.28;;;11.36;100.00
12468;BME280;57850;52.922;6.256;2023-02-02T09:40:30;102382.16;;;11.37;100.00
12468;BME280;57850;52.922;6.256;2023-02-02T09:43:02;102398.28;;;11.05;100.00
12468;BME280;57850;52.922;6.256;2023-02-02T09:45:37;102385.03;;;11.18;100.00
12468;BME280;57850;52.922;6.256;2023-02-02T09:48:18;102404.69;;;10.78;100.00
12468;BME280;57850;52.922;6.256;2023-02-02T09:50:52;102412.69;;;10.67;100.00
12468;BME280;57850;52.922;6.256;2023-02-02T09:53:26;102404.81;;;10.69;100.00
12468;BME280;57850;52.922;6.256;2023-02-02T09:56:00;102375.97;;;11.41;100.00
12468;BME280;57850;52.922;6.256;2023-02-02T09:58:32;102395.19;;;11.38;100.00
12468;BME280;57850;52.922;6.256;2023-02-02T10:01:03;102415.81;;;10.94;100.00
12468;BME280;57850;52.922;6.256;2023-02-02T10:03:36;102399.81;;;11.21;100.00
12468;BME280;57850;52.922;6.256;2023-02-02T10:06:12;102407.81;;;11.06;100.00
12468;BME280;57850;52.922;6.256;2023-02-02T10:08:46;102388.97;;;11.47;100.00
12468;BME280;57850;52.922;6.256;2023-02-02T10:11:26;102406.69;;;11.26;100.00
12468;BME280;57850;52.922;6.256;2023-02-02T10:13:57;102428.63;;;11.13;100.00
12468;BME280;57850;52.922;6.256;2023-02-02T10:16:25;102404.69;;;11.44;100.00
12468;BME280;57850;52.922;6.256;2023-02-02T10:18:56;102410.91;;;11.37;100.00
12468;BME280;57850;52.922;6.256;2023-02-02T10:21:31;102416.06;;;11.41;100.00
12468;BME280;57850;52.922;6.256;2023-02-02T10:24:02;102441.91;;;10.98;100.00
12468;BME280;57850;52.922;6.256;2023-02-02T10:26:35;102439.47;;;10.83;100.00
12468;BME280;57850;52.922;6.256;2023-02-02T10:29:10;102436.78;;;10.88;100.00
12468;BME280;57850;52.922;6.256;2023-02-02T10:31:42;102412.44;;;11.50;100.00
12468;BME280;57850;52.922;6.256;2023-02-02T10:34:14;102448.97;;;10.87;100.00
12468;BME280;57850;52.922;6.256;2023-02-02T10:36:55;102430.97;;;11.35;100.00
12468;BME280;57850;52.922;6.256;2023-02-02T10:39:33;102437.34;;;11.12;100.00
12468;BME280;57850;52.922;6.256;2023-02-02T10:42:10;102427.78;;;11.14;100.00
12468;BME280;57850;52.922;6.256;2023-02-02T10:44:44;102435.88;;;10.92;100.00
12468;BME280;57850;52.922;6.256;2023-02-02T10:47:21;102435.75;;;11.02;100.00
12468;BME280;57850;52.922;6.256;2023-02-02T10:49:58;102434.06;;;10.97;100.00
12468;BME280;57850;52.922;6.256;2023-02-02T10:52:30;102431.69;;;11.44;100.00
12468;BME280;57850;52.922;6.256;2023-02-02T10:55:00;102435.34;;;11.33;100.00
12468;BME280;57850;52.922;6.256;2023-02-02T10:57:41;102433.66;;;11.30;100.00
12468;BME280;57850;52.922;6.256;2023-02-02T11:00:18;102424.03;;;11.34;100.00
12468;BME280;57850;52.922;6.256;2023-02-02T11:02:46;102441.56;;;11.24;100.00
12468;BME280;57850;52.922;6.256;2023-02-02T11:05:20;102436.44;;;11.18;100.00
12468;BME280;57850;52.922;6.256;2023-02-02T11:08:24;102411.59;;;11.48;100.00
12468;BME280;57850;52.922;6.256;2023-02-02T11:10:57;102431.72;;;11.43;100.00
12468;BME280;57850;52.922;6.256;2023-02-02T11:13:28;102430.88;;;11.42;100.00
12468;BME280;57850;52.922;6.256;2023-02-02T11:16:22;102433.31;;;11.53;100.00
12468;BME280;57850;52.922;6.256;2023-02-02T11:18:51;102448.41;;;11.33;100.00
12468;BME280;57850;52.922;6.256;2023-02-02T11:21:21;102446.69;;;11.33;100.00
12468;BME280;57850;52.922;6.256;2023-02-02T11:23:56;102450.44;;;11.09;100.00
12468;BME280;57850;52.922;6.256;2023-02-02T11:26:27;102458.66;;;10.79;100.00
12468;BME280;57850;52.922;6.256;2023-02-02T11:29:12;102454.13;;;10.95;100.00
12468;BME280;57850;52.922;6.256;2023-02-02T11:31:39;102432.59;;;11.42;100.00
12468;BME280;57850;52.922;6.256;2023-02-02T11:34:17;102444.09;;;11.28;100.00
12468;BME280;57850;52.922;6.256;2023-02-02T11:37:01;102434.31;;;11.44;100.00
12468;BME280;57850;52.922;6.256;2023-02-02T11:39:29;102436.75;;;11.56;100.00
12468;BME280;57850;52.922;6.256;2023-02-02T11:42:05;102442.97;;;11.49;100.00
12468;BME280;57850;52.922;6.256;2023-02-02T11:44:33;102426.91;;;11.75;100.00
12468;BME280;57850;52.922;6.256;2023-02-02T11:47:02;102427.88;;;11.68;100.00
12468;BME280;57850;52.922;6.256;2023-02-02T11:49:32;102428.75;;;11.70;100.00
12468;BME280;57850;52.922;6.256;2023-02-02T11:52:05;102424.69;;;11.48;100.00
12468;BME280;57850;52.922;6.256;2023-02-02T11:54:45;102428.00;;;11.59;100.00
12468;BME280;57850;52.922;6.256;2023-02-02T11:57:17;102435.53;;;11.19;100.00
12468;BME280;57850;52.922;6.256;2023-02-02T11:59:46;102424.91;;;11.31;100.00
12468;BME280;57850;52.922;6.256;2023-02-02T12:02:28;102428.47;;;11.27;100.00
12468;BME280;57850;52.922;6.256;2023-02-02T12:05:12;102414.84;;;11.65;100.00
12468;BME280;57850;52.922;6.256;2023-02-02T12:07:39;102409.75;;;11.56;100.00
12468;BME280;57850;52.922;6.256;2023-02-02T12:10:13;102407.16;;;11.53;100.00
12468;BME280;57850;52.922;6.256;2023-02-02T12:12:51;102390.25;;;11.78;100.00
12468;BME280;57850;52.922;6.256;2023-02-02T12:15:27;102400.00;;;11.67;100.00
12468;BME280;57850;52.922;6.256;2023-02-02T12:18:02;102393.81;;;11.72;100.00
12468;BME280;57850;52.922;6.256;2023-02-02T12:20:38;102385.88;;;11.78;100.00
12468;BME280;57850;52.922;6.256;2023-02-02T12:23:41;102390.34;;;11.69;100.00
12468;BME280;57850;52.922;6.256;2023-02-02T12:26:18;102376.38;;;11.73;100.00
12468;BME280;57850;52.922;6.256;2023-02-02T12:29:13;102367.41;;;11.89;100.00
12468;BME280;57850;52.922;6.256;2023-02-02T12:31:53;102376.72;;;11.50;100.00
12468;BME280;57850;52.922;6.256;2023-02-02T12:34:29;102374.41;;;11.31;100.00
12468;BME280;57850;52.922;6.256;2023-02-02T12:37:02;102358.03;;;11.77;100.00
12468;BME280;57850;52.922;6.256;2023-02-02T12:39:43;102363.50;;;11.61;100.00
12468;BME280;57850;52.922;6.256;2023-02-02T12:42:31;102363.34;;;11.68;100.00
12468;BME280;57850;52.922;6.256;2023-02-02T12:45:30;102350.84;;;11.90;100.00
12468;BME280;57850;52.922;6.256;2023-02-02T12:48:07;102343.28;;;12.19;100.00
12468;BME280;57850;52.922;6.256;2023-02-02T12:50:38;102368.63;;;11.67;100.00
12468;BME280;57850;52.922;6.256;2023-02-02T12:53:17;102344.91;;;11.80;100.00
12468;BME280;57850;52.922;6.256;2023-02-02T12:55:51;102351.06;;;11.75;100.00
12468;BME280;57850;52.922;6.256;2023-02-02T12:58:26;102341.53;;;11.72;100.00
12468;BME280;57850;52.922;6.256;2023-02-02T13:01:06;102329.75;;;11.99;100.00
12468;BME280;57850;52.922;6.256;2023-02-02T13:03:44;102325.03;;;12.18;100.00
12468;BME280;57850;52.922;6.256;2023-02-02T13:06:25;102334.06;;;12.00;100.00
12468;BME280;57850;52.922;6.256;2023-02-02T13:09:02;102328.69;;;12.08;100.00